KCWA/CWA METAR and TAF weather

Enter ICAO airport designator
Station Type Date Time Source
KCWA METAR 2021/03/05 11:47 UTC NOAA

KCWA 051147Z 27004KT 10SM SCT090 M04/M09 A3035


Station Type Date Time Source
KCWA Decoded METAR 2021/03/05 11:47 UTC NOAA

Mosinee / Central Wisconsin, WI, United States (KCWA) 44-47N 089-40W
Mar 05, 2021 - 06:47 AM EST / 2021.03.05 1147 UTC
Wind: from the W (270 degrees) at 5 MPH (4 KT):0
Visibility: 10 mile(s):0
Sky conditions: partly cloudy
Temperature: 24 F (-4 C)
Windchill: 17 F (-8 C):1
Dew Point: 15 F (-9 C)
Relative Humidity: 68%
Pressure (altimeter): 30.35 in. Hg (1027 hPa)
ob: KCWA 051147Z 27004KT 10SM SCT090 M04/M09 A3035
cycle: 12

Station Type Date Time Source
KCWA TAF 2021/03/05 12:24 UTC NOAA

TAF KCWA 051121Z 0512/0612 29005KT P6SM BKN080
FM051500 32007KT P6SM SCT090
FM052300 34003KT P6SM SKC
FM060900 VRB03KT 6SM BR SCT250

Example: see airport list